This is the latest recevied weather packets stored in our database for station/object N4DWK. If no packets are shown the sender has not sent any weather packets the latest 10 day(s).
| Time | Temp. | Humidity | Pressure | Rain* | Wind** | Luminosity | Snow |
|---|---|---|---|---|---|---|---|
| 1777690204 | 15° C | 67% | 1012.1 hPa | 0 mm | - | 0 W/m² | - |
| 1777689904 | 15° C | 67% | 1012.2 hPa | 0 mm | - | 0 W/m² | - |
| 1777689604 | 15° C | 66% | 1012.2 hPa | 0 mm | - | 0 W/m² | - |
| 1777689304 | 15° C | 66% | 1012.2 hPa | 0 mm | - | 0 W/m² | - |
| 1777689004 | 15° C | 66% | 1012.3 hPa | 0 mm | - | 0 W/m² | - |
| 1777688704 | 15.56° C | 65% | 1012.5 hPa | 0 mm | - | 0 W/m² | - |
| 1777673106 | 21.11° C | 40% | 1011.3 hPa | 0 mm | - | 227 W/m² | - |
| 1777672506 | 21.11° C | 41% | 1011.2 hPa | 0 mm | - | 250 W/m² | - |
| 1777671306 | 21.11° C | 39% | 1011.2 hPa | 0 mm | - | 302 W/m² | - |
| 1777670406 | 21.67° C | 38% | 1011.2 hPa | 0 mm | - | 341 W/m² | - |
| 1777670106 | 22.22° C | 38% | 1011.4 hPa | 0 mm | - | 355 W/m² | - |
| 1777669506 | 21.67° C | 40% | 1011.4 hPa | 0 mm | - | 376 W/m² | - |
| 1777668906 | 21.67° C | 39% | 1011.5 hPa | 0 mm | - | 399 W/m² | - |
| 1777667706 | 21.67° C | 39% | 1011.6 hPa | 0 mm | - | 446 W/m² | - |
| 1777667406 | 21.67° C | 39% | 1011.7 hPa | 0 mm | - | 457 W/m² | - |
| 1777662906 | 21.11° C | 41% | 1013 hPa | 0 mm | - | 592 W/m² | - |
| 1777660505 | 20.56° C | 40% | 1013.8 hPa | 0 mm | - | 643 W/m² | - |
| 1777659606 | 20.56° C | 41% | 1014.1 hPa | 0 mm | - | 657 W/m² | - |
| 1777659306 | 20° C | 39% | 1014.1 hPa | 0 mm | - | 661 W/m² | - |
| 1777659006 | 20° C | 42% | 1014.2 hPa | 0 mm | - | 670 W/m² | - |
| 1777658106 | 18.89° C | 42% | 1014.1 hPa | 0 mm | - | 666 W/m² | - |
| 1777657506 | 18.89° C | 40% | 1014.3 hPa | 0 mm | - | 459 W/m² | - |
| 1777655406 | 18.33° C | 43% | 1014.7 hPa | 0 mm | - | 687 W/m² | - |
| 1777650906 | 15.56° C | 47% | 1015.7 hPa | 0 mm | - | 116 W/m² | - |
| 1777650305 | 15.56° C | 47% | 1015.8 hPa | 0 mm | - | 120 W/m² | - |
* Rain latest hour (hover to see other rain measurements)
** Current wind speed in m/s (hover to see current wind gust speed)